Time;durP1;ratioP1;P1;durP2;ratioP2;P2;SDS_P1;SDS_P2;PMS_P1;PMS_P2;Temp;Humidity;BMP_temperature;BMP_pressure;BME280_temperature;BME280_humidity;BME280_pressure;Samples;Min_cycle;Max_cycle;Signal;HPM_P1;HPM_P2
2023/09/08 00:02:03;;;;;;;34.70;22.50;;;;;;;-128.00;-1.00;-1.00;101018;316;1003249;-33
2023/09/08 00:04:29;;;;;;;78.70;58.60;;;;;;;-128.00;-1.00;-1.00;80834;316;3298714;-34
2023/09/08 00:06:54;;;;;;;40.40;26.00;;;;;;;-128.00;-1.00;-1.00;89842;316;4503681;-29
2023/09/08 00:09:20;;;;;;;430.10;317.00;;;;;;;-128.00;-1.00;-1.00;86713;317;3003145;-30
2023/09/08 00:11:47;;;;;;;197.70;130.40;;;;;;;-128.00;-1.00;-1.00;23814;322;7504789;-33
2023/09/08 00:14:14;;;;;;;269.90;190.40;;;;;;;-128.00;-1.00;-1.00;22396;322;7506057;-31
2023/09/08 00:16:42;;;;;;;236.20;182.90;;;;;;;-128.00;-1.00;-1.00;19472;316;7505438;-31
2023/09/08 00:19:09;;;;;;;73.00;58.70;;;;;;;-128.00;-1.00;-1.00;19078;322;7504498;-34
2023/09/08 00:21:36;;;;;;;28.30;20.70;;;;;;;-128.00;-1.00;-1.00;19059;322;7505066;-30
2023/09/08 00:24:01;;;;;;;36.90;21.50;;;;;;;-128.00;-1.00;-1.00;19074;317;7504578;-34
2023/09/08 00:26:27;;;;;;;30.60;24.10;;;;;;;-128.00;-1.00;-1.00;19041;322;7505391;-31
2023/09/08 00:28:53;;;;;;;47.70;33.90;;;;;;;-128.00;-1.00;-1.00;19469;322;7504844;-31
2023/09/08 00:31:19;;;;;;;22.00;16.10;;;;;;;-128.00;-1.00;-1.00;19509;317;7504371;-34
2023/09/08 00:33:45;;;;;;;32.40;18.30;;;;;;;-128.00;-1.00;-1.00;19441;317;7504656;-30
2023/09/08 01:18:22;;;;;;;26.30;16.50;;;;;;;-99.84;19.20;20034.58;57876;316;7504341;-37
2023/09/08 01:21:13;;;;;;;18.40;15.50;;;;;;;-128.00;-1.00;-1.00;19043;317;7504794;-33
2023/09/08 01:23:57;;;;;;;14.40;12.90;;;;;;;-128.00;-1.00;-1.00;19073;316;7506253;-30
2023/09/08 01:26:24;;;;;;;27.80;18.20;;;;;;;-128.00;-1.00;-1.00;19091;317;7506562;-34
2023/09/08 01:28:50;;;;;;;17.10;13.00;;;;;;;-128.00;-1.00;-1.00;19059;315;7504824;-33
2023/09/08 01:31:16;;;;;;;12.40;10.30;;;;;;;-128.00;-1.00;-1.00;19064;315;7506195;-30
2023/09/08 01:33:42;;;;;;;26.20;16.10;;;;;;;-128.00;-1.00;-1.00;19075;316;7506929;-35
2023/09/08 01:36:08;;;;;;;22.30;15.40;;;;;;;-128.00;-1.00;-1.00;19073;316;7504469;-31
2023/09/08 01:38:33;;;;;;;23.20;14.40;;;;;;;-128.00;-1.00;-1.00;19076;315;7504451;-30
2023/09/08 01:41:01;;;;;;;9.10;8.10;;;;;;;-128.00;-1.00;-1.00;19039;317;7506782;-36
2023/09/08 01:43:27;;;;;;;8.30;7.50;;;;;;;-128.00;-1.00;-1.00;19057;321;7504968;-35
2023/09/08 01:45:53;;;;;;;9.40;8.60;;;;;;;-128.00;-1.00;-1.00;19073;315;7505990;-31
2023/09/08 01:48:19;;;;;;;24.60;15.40;;;;;;;-128.00;-1.00;-1.00;19080;321;7504553;-34
2023/09/08 01:50:46;;;;;;;20.20;15.40;;;;;;;-128.00;-1.00;-1.00;19083;316;7505116;-36
2023/09/08 01:53:11;;;;;;;11.90;9.60;;;;;;;-128.00;-1.00;-1.00;19083;316;7507474;-35
2023/09/08 01:55:37;;;;;;;19.30;15.00;;;;;;;-128.00;-1.00;-1.00;19495;315;7506008;-32
2023/09/08 01:58:03;;;;;;;26.70;19.30;;;;;;;-128.00;-1.00;-1.00;19499;320;7505409;-32
2023/09/08 02:00:29;;;;;;;27.40;20.10;;;;;;;-128.00;-1.00;-1.00;19491;317;7505024;-35
2023/09/08 02:02:55;;;;;;;29.50;21.40;;;;;;;-128.00;-1.00;-1.00;19474;321;7505123;-30
2023/09/08 02:05:22;;;;;;;35.50;24.90;;;;;;;-128.00;-1.00;-1.00;19484;317;7504815;-32
2023/09/08 02:07:49;;;;;;;38.80;27.40;;;;;;;-128.00;-1.00;-1.00;19511;321;7505380;-30
2023/09/08 02:10:14;;;;;;;40.30;29.80;;;;;;;-128.00;-1.00;-1.00;19060;316;7506134;-33
2023/09/08 02:12:40;;;;;;;44.10;30.80;;;;;;;-128.00;-1.00;-1.00;19446;318;7506099;-37
2023/09/08 02:15:08;;;;;;;41.70;29.40;;;;;;;-128.00;-1.00;-1.00;19503;321;7505100;-32
2023/09/08 02:17:34;;;;;;;38.70;27.30;;;;;;;-128.00;-1.00;-1.00;19055;315;7505445;-37
2023/09/08 02:19:59;;;;;;;38.80;28.20;;;;;;;-128.00;-1.00;-1.00;19061;316;7504872;-33
2023/09/08 02:22:25;;;;;;;41.80;29.50;;;;;;;-128.00;-1.00;-1.00;19489;320;7505150;-33
2023/09/08 02:24:52;;;;;;;44.00;30.10;;;;;;;-128.00;-1.00;-1.00;19494;316;7506309;-29
2023/09/08 02:27:18;;;;;;;55.90;34.00;;;;;;;-128.00;-1.00;-1.00;19523;316;7504684;-30
2023/09/08 02:29:45;;;;;;;49.80;34.40;;;;;;;-128.00;-1.00;-1.00;19488;316;7505450;-31
2023/09/08 02:32:11;;;;;;;49.80;35.20;;;;;;;-128.00;-1.00;-1.00;19497;321;7505326;-35
2023/09/08 02:34:37;;;;;;;53.50;35.70;;;;;;;-128.00;-1.00;-1.00;19484;317;7504584;-30
2023/09/08 02:37:03;;;;;;;63.10;40.40;;;;;;;-128.00;-1.00;-1.00;19530;316;7504475;-35
2023/09/08 02:39:30;;;;;;;67.50;43.90;;;;;;;-128.00;-1.00;-1.00;19481;316;7505945;-35
2023/09/08 02:41:56;;;;;;;65.30;38.20;;;;;;;-128.00;-1.00;-1.00;19493;316;7504550;-31
2023/09/08 02:44:23;;;;;;;51.40;36.60;;;;;;;-128.00;-1.00;-1.00;19500;321;7506117;-31
2023/09/08 02:46:48;;;;;;;45.80;31.70;;;;;;;-128.00;-1.00;-1.00;19078;316;7506283;-31
2023/09/08 02:49:14;;;;;;;48.10;32.60;;;;;;;-128.00;-1.00;-1.00;19495;316;7504770;-36
2023/09/08 02:51:40;;;;;;;52.70;29.10;;;;;;;-128.00;-1.00;-1.00;19080;316;7506141;-35
2023/09/08 02:54:06;;;;;;;66.30;41.80;;;;;;;-128.00;-1.00;-1.00;19503;322;7504815;-31
2023/09/08 02:56:33;;;;;;;70.30;43.20;;;;;;;-128.00;-1.00;-1.00;19507;316;7504869;-30
2023/09/08 02:58:59;;;;;;;76.80;44.60;;;;;;;-128.00;-1.00;-1.00;19484;321;7505661;-30
2023/09/08 03:01:25;;;;;;;54.40;37.10;;;;;;;-128.00;-1.00;-1.00;19492;320;7505038;-31
2023/09/08 03:03:51;;;;;;;43.60;28.80;;;;;;;-128.00;-1.00;-1.00;19491;316;7505387;-30
2023/09/08 03:06:19;;;;;;;33.00;24.60;;;;;;;-128.00;-1.00;-1.00;19484;316;7505029;-31
2023/09/08 03:08:45;;;;;;;34.50;23.40;;;;;;;-128.00;-1.00;-1.00;19067;316;7506128;-35
2023/09/08 03:11:11;;;;;;;33.30;21.90;;;;;;;-128.00;-1.00;-1.00;19067;316;7505511;-31
2023/09/08 03:13:36;;;;;;;28.20;20.90;;;;;;;-128.00;-1.00;-1.00;19065;320;7504642;-33
2023/09/08 03:16:06;;;;;;;27.90;20.40;;;;;;;-128.00;-1.00;-1.00;19067;316;7505302;-37
2023/09/08 03:18:33;;;;;;;25.30;20.50;;;;;;;-128.00;-1.00;-1.00;19086;316;7504975;-33
2023/09/08 03:21:01;;;;;;;27.40;18.60;;;;;;;-128.00;-1.00;-1.00;19047;317;7506886;-37
2023/09/08 03:23:27;;;;;;;30.90;20.80;;;;;;;-128.00;-1.00;-1.00;19074;316;7504575;-37
2023/09/08 03:25:53;;;;;;;33.40;20.70;;;;;;;-128.00;-1.00;-1.00;19489;316;7504461;-33
2023/09/08 03:28:19;;;;;;;23.50;18.20;;;;;;;-128.00;-1.00;-1.00;19500;320;7505517;-33
2023/09/08 03:30:45;;;;;;;75.90;52.00;;;;;;;-128.00;-1.00;-1.00;19472;317;7504750;-32
2023/09/08 03:33:11;;;;;;;232.50;158.90;;;;;;;-128.00;-1.00;-1.00;19468;316;7505446;-37
2023/09/08 03:35:38;;;;;;;193.60;136.20;;;;;;;-128.00;-1.00;-1.00;19471;316;7505656;-36
2023/09/08 03:38:04;;;;;;;267.10;196.70;;;;;;;-128.00;-1.00;-1.00;19503;316;7505133;-32
2023/09/08 03:40:30;;;;;;;95.00;60.70;;;;;;;-128.00;-1.00;-1.00;19491;316;7504962;-34
2023/09/08 03:42:56;;;;;;;68.70;51.70;;;;;;;-128.00;-1.00;-1.00;19486;321;7504528;-33
2023/09/08 03:45:22;;;;;;;76.20;52.00;;;;;;;-128.00;-1.00;-1.00;19481;316;7506076;-33
2023/09/08 03:47:49;;;;;;;81.70;54.70;;;;;;;-128.00;-1.00;-1.00;19497;316;7504507;-33
2023/09/08 03:50:15;;;;;;;105.80;80.50;;;;;;;-128.00;-1.00;-1.00;19477;316;7504760;-36
2023/09/08 03:52:41;;;;;;;62.90;48.20;;;;;;;-128.00;-1.00;-1.00;19072;322;7506134;-32
2023/09/08 03:55:08;;;;;;;79.00;63.70;;;;;;;-128.00;-1.00;-1.00;19502;316;7505532;-36
2023/09/08 03:57:34;;;;;;;31.30;21.90;;;;;;;-128.00;-1.00;-1.00;19501;316;7505458;-35
2023/09/08 04:00:00;;;;;;;36.10;27.40;;;;;;;-128.00;-1.00;-1.00;19490;316;7505226;-34
2023/09/08 04:02:26;;;;;;;37.60;28.70;;;;;;;-128.00;-1.00;-1.00;19488;316;7505100;-31
2023/09/08 04:04:52;;;;;;;41.30;29.70;;;;;;;-128.00;-1.00;-1.00;19519;316;7504585;-31
2023/09/08 04:07:18;;;;;;;37.50;30.00;;;;;;;-128.00;-1.00;-1.00;19491;316;7505289;-35
2023/09/08 04:09:45;;;;;;;51.80;37.60;;;;;;;-128.00;-1.00;-1.00;19497;321;7504842;-30
2023/09/08 04:12:11;;;;;;;25.00;18.10;;;;;;;-128.00;-1.00;-1.00;19487;317;7506935;-30
2023/09/08 04:14:37;;;;;;;22.30;18.80;;;;;;;-128.00;-1.00;-1.00;19066;316;7504832;-30
2023/09/08 04:17:03;;;;;;;51.60;40.40;;;;;;;-128.00;-1.00;-1.00;19492;320;7505124;-30
2023/09/08 04:19:29;;;;;;;93.20;82.80;;;;;;;-128.00;-1.00;-1.00;19501;316;7504535;-35
2023/09/08 04:21:56;;;;;;;19.00;12.90;;;;;;;-128.00;-1.00;-1.00;19480;316;7504520;-30
2023/09/08 04:24:22;;;;;;;14.90;11.30;;;;;;;-128.00;-1.00;-1.00;19488;316;7505455;-31
2023/09/08 04:26:48;;;;;;;20.60;10.50;;;;;;;-128.00;-1.00;-1.00;19494;316;7505815;-30
2023/09/08 04:29:14;;;;;;;24.70;11.40;;;;;;;-128.00;-1.00;-1.00;19491;316;7505686;-30
2023/09/08 04:31:40;;;;;;;26.00;15.10;;;;;;;-128.00;-1.00;-1.00;19482;322;7505632;-34
2023/09/08 04:34:06;;;;;;;20.80;15.70;;;;;;;-128.00;-1.00;-1.00;19486;316;7504744;-31
2023/09/08 04:36:33;;;;;;;30.70;24.80;;;;;;;-128.00;-1.00;-1.00;19495;316;7504574;-32
2023/09/08 04:38:59;;;;;;;23.40;19.00;;;;;;;-128.00;-1.00;-1.00;19478;316;7504512;-35
2023/09/08 04:41:25;;;;;;;18.10;13.80;;;;;;;-128.00;-1.00;-1.00;19487;316;7507359;-31
2023/09/08 04:43:51;;;;;;;16.80;13.80;;;;;;;-128.00;-1.00;-1.00;19479;316;7504842;-32
2023/09/08 04:46:17;;;;;;;17.60;13.00;;;;;;;-128.00;-1.00;-1.00;19506;317;7504707;-35
2023/09/08 04:48:43;;;;;;;15.40;9.50;;;;;;;-128.00;-1.00;-1.00;19075;316;7504503;-31
2023/09/08 04:51:09;;;;;;;28.20;14.20;;;;;;;-128.00;-1.00;-1.00;19060;316;7505368;-31
2023/09/08 04:53:36;;;;;;;13.00;10.90;;;;;;;-128.00;-1.00;-1.00;19509;316;7504583;-35
2023/09/08 04:56:02;;;;;;;13.00;9.30;;;;;;;-128.00;-1.00;-1.00;19056;316;7506243;-35
2023/09/08 04:58:27;;;;;;;15.40;9.90;;;;;;;-128.00;-1.00;-1.00;19081;320;7504692;-31
2023/09/08 05:00:53;;;;;;;14.10;9.70;;;;;;;-128.00;-1.00;-1.00;19055;316;7505218;-35
2023/09/08 05:03:19;;;;;;;21.60;11.90;;;;;;;-128.00;-1.00;-1.00;19493;316;7504595;-35
2023/09/08 05:05:45;;;;;;;12.50;10.20;;;;;;;-128.00;-1.00;-1.00;19482;317;7505450;-35
2023/09/08 05:08:11;;;;;;;16.40;10.20;;;;;;;-128.00;-1.00;-1.00;19484;316;7504484;-31
2023/09/08 05:10:37;;;;;;;13.90;8.00;;;;;;;-128.00;-1.00;-1.00;19065;322;7505575;-31
2023/09/08 05:13:03;;;;;;;10.50;8.20;;;;;;;-128.00;-1.00;-1.00;19473;322;7505232;-35
2023/09/08 05:15:31;;;;;;;13.70;9.50;;;;;;;-128.00;-1.00;-1.00;19495;322;7505199;-31
2023/09/08 05:17:56;;;;;;;10.90;7.00;;;;;;;-128.00;-1.00;-1.00;19072;316;7505010;-31
2023/09/08 05:20:22;;;;;;;15.90;9.40;;;;;;;-128.00;-1.00;-1.00;19486;320;7505664;-33
2023/09/08 05:22:49;;;;;;;15.90;11.50;;;;;;;-128.00;-1.00;-1.00;19496;316;7505247;-35
2023/09/08 05:25:15;;;;;;;13.80;10.80;;;;;;;-128.00;-1.00;-1.00;19508;317;7504961;-31
2023/09/08 05:27:41;;;;;;;13.50;10.40;;;;;;;-128.00;-1.00;-1.00;19483;317;7505135;-31
2023/09/08 05:30:08;;;;;;;15.20;10.80;;;;;;;-128.00;-1.00;-1.00;19488;316;7504934;-32
2023/09/08 05:32:34;;;;;;;13.20;9.60;;;;;;;-128.00;-1.00;-1.00;19480;322;7504892;-31
2023/09/08 05:35:00;;;;;;;12.70;9.00;;;;;;;-128.00;-1.00;-1.00;19471;316;7505388;-32
2023/09/08 05:37:26;;;;;;;16.20;11.40;;;;;;;-128.00;-1.00;-1.00;19483;316;7504750;-36
2023/09/08 05:39:53;;;;;;;12.90;9.80;;;;;;;-128.00;-1.00;-1.00;19515;316;7505466;-31
2023/09/08 05:42:19;;;;;;;14.60;11.00;;;;;;;-128.00;-1.00;-1.00;19490;316;7504386;-31
2023/09/08 05:44:46;;;;;;;17.10;13.50;;;;;;;-128.00;-1.00;-1.00;19494;320;7504647;-34
2023/09/08 05:47:11;;;;;;;13.60;9.80;;;;;;;-128.00;-1.00;-1.00;19096;316;7505088;-35
2023/09/08 05:49:37;;;;;;;17.90;11.20;;;;;;;-128.00;-1.00;-1.00;19488;322;7507286;-31
2023/09/08 05:52:05;;;;;;;16.50;9.80;;;;;;;-128.00;-1.00;-1.00;19472;317;7504580;-36
2023/09/08 05:54:30;;;;;;;15.30;9.80;;;;;;;-128.00;-1.00;-1.00;19078;317;7505309;-31
2023/09/08 05:56:56;;;;;;;9.60;8.30;;;;;;;-128.00;-1.00;-1.00;19061;322;7504516;-32
2023/09/08 05:59:22;;;;;;;20.60;9.40;;;;;;;-128.00;-1.00;-1.00;19086;321;7505211;-32
2023/09/08 06:01:47;;;;;;;18.60;11.40;;;;;;;-128.00;-1.00;-1.00;19064;322;7506115;-32
2023/09/08 06:04:13;;;;;;;23.10;10.90;;;;;;;-128.00;-1.00;-1.00;19087;321;7506486;-32
2023/09/08 06:06:39;;;;;;;18.90;8.70;;;;;;;-128.00;-1.00;-1.00;19058;321;7504532;-31
2023/09/08 06:09:07;;;;;;;20.40;11.20;;;;;;;-128.00;-1.00;-1.00;19478;316;7505399;-34
2023/09/08 06:11:33;;;;;;;10.80;8.20;;;;;;;-128.00;-1.00;-1.00;19064;316;7504676;-37
2023/09/08 06:13:59;;;;;;;10.20;9.20;;;;;;;-128.00;-1.00;-1.00;19062;321;7504945;-35
2023/09/08 06:16:25;;;;;;;12.10;9.40;;;;;;;-128.00;-1.00;-1.00;19015;323;7504880;-36
2023/09/08 06:18:51;;;;;;;18.00;9.00;;;;;;;-128.00;-1.00;-1.00;19061;316;7504772;-36
2023/09/08 06:21:17;;;;;;;10.10;7.80;;;;;;;-128.00;-1.00;-1.00;19059;322;7504826;-35
2023/09/08 06:23:43;;;;;;;13.10;7.30;;;;;;;-128.00;-1.00;-1.00;19060;316;7505114;-31
2023/09/08 06:26:08;;;;;;;13.70;7.50;;;;;;;-128.00;-1.00;-1.00;19052;316;7506719;-31
2023/09/08 06:28:35;;;;;;;6.40;5.80;;;;;;;-128.00;-1.00;-1.00;19064;317;7506691;-36
2023/09/08 06:31:01;;;;;;;12.00;7.20;;;;;;;-128.00;-1.00;-1.00;19057;316;7504745;-32
2023/09/08 06:33:26;;;;;;;11.00;7.20;;;;;;;-128.00;-1.00;-1.00;19063;321;7505156;-32
2023/09/08 06:35:53;;;;;;;9.60;7.10;;;;;;;-128.00;-1.00;-1.00;19472;316;7504925;-32
2023/09/08 06:38:19;;;;;;;14.10;7.20;;;;;;;-128.00;-1.00;-1.00;19071;316;7505950;-32
2023/09/08 06:40:45;;;;;;;8.90;7.50;;;;;;;-128.00;-1.00;-1.00;19487;316;7505301;-32
2023/09/08 06:43:11;;;;;;;9.20;6.50;;;;;;;-128.00;-1.00;-1.00;19501;320;7504876;-36
2023/09/08 06:45:39;;;;;;;10.40;7.20;;;;;;;-128.00;-1.00;-1.00;19495;316;7504907;-35
2023/09/08 06:48:05;;;;;;;5.70;4.40;;;;;;;-128.00;-1.00;-1.00;19049;316;7504906;-35
2023/09/08 06:50:31;;;;;;;8.40;5.70;;;;;;;-128.00;-1.00;-1.00;19081;318;7504491;-32
2023/09/08 06:52:57;;;;;;;8.20;6.00;;;;;;;-128.00;-1.00;-1.00;19479;316;7504434;-31
2023/09/08 06:55:23;;;;;;;9.40;6.20;;;;;;;-128.00;-1.00;-1.00;19487;321;7504619;-33
2023/09/08 06:57:49;;;;;;;9.30;6.70;;;;;;;-128.00;-1.00;-1.00;19071;316;7504894;-36
2023/09/08 07:00:17;;;;;;;10.10;6.60;;;;;;;-128.00;-1.00;-1.00;19050;321;7504774;-32
2023/09/08 07:02:43;;;;;;;6.00;5.40;;;;;;;-128.00;-1.00;-1.00;19064;316;7506508;-36
2023/09/08 07:05:08;;;;;;;10.50;6.40;;;;;;;-128.00;-1.00;-1.00;19075;316;7506166;-36
2023/09/08 07:07:35;;;;;;;13.20;6.30;;;;;;;-128.00;-1.00;-1.00;19492;322;7504929;-31
2023/09/08 07:10:02;;;;;;;8.70;5.90;;;;;;;-128.00;-1.00;-1.00;19046;322;7504678;-31
2023/09/08 07:12:28;;;;;;;9.70;7.90;;;;;;;-128.00;-1.00;-1.00;19067;316;7504842;-32
2023/09/08 07:14:53;;;;;;;5.90;5.30;;;;;;;-128.00;-1.00;-1.00;19061;316;7504771;-36
2023/09/08 07:17:19;;;;;;;8.00;5.60;;;;;;;-128.00;-1.00;-1.00;19056;316;7506093;-35
2023/09/08 07:19:46;;;;;;;9.70;6.70;;;;;;;-128.00;-1.00;-1.00;19048;322;7506416;-32
2023/09/08 07:22:12;;;;;;;9.60;6.80;;;;;;;-128.00;-1.00;-1.00;19501;316;7505699;-32
2023/09/08 07:24:38;;;;;;;7.90;6.80;;;;;;;-128.00;-1.00;-1.00;19474;316;7504617;-32
2023/09/08 07:27:04;;;;;;;9.70;6.40;;;;;;;-128.00;-1.00;-1.00;19496;316;7507087;-35
2023/09/08 07:29:31;;;;;;;6.80;6.10;;;;;;;-128.00;-1.00;-1.00;19495;322;7505514;-35
2023/09/08 07:31:57;;;;;;;8.80;6.20;;;;;;;-128.00;-1.00;-1.00;19481;316;7506339;-35
2023/09/08 07:34:23;;;;;;;6.30;5.20;;;;;;;-128.00;-1.00;-1.00;19498;321;7505446;-32
2023/09/08 07:36:49;;;;;;;13.10;6.40;;;;;;;-128.00;-1.00;-1.00;19505;317;7504477;-35
2023/09/08 07:39:15;;;;;;;8.80;6.50;;;;;;;-128.00;-1.00;-1.00;19484;317;7506892;-31
2023/09/08 07:41:41;;;;;;;6.10;4.70;;;;;;;-128.00;-1.00;-1.00;19508;316;7505232;-35
2023/09/08 07:44:08;;;;;;;20.50;6.20;;;;;;;-128.00;-1.00;-1.00;19489;316;7505303;-32
2023/09/08 07:46:34;;;;;;;7.90;5.10;;;;;;;-128.00;-1.00;-1.00;19470;316;7504420;-36
2023/09/08 07:49:00;;;;;;;9.70;5.30;;;;;;;-128.00;-1.00;-1.00;19473;316;7504577;-32
2023/09/08 07:51:26;;;;;;;9.10;5.70;;;;;;;-128.00;-1.00;-1.00;19472;316;7505114;-36
2023/09/08 07:53:53;;;;;;;10.00;5.60;;;;;;;-128.00;-1.00;-1.00;19501;321;7504542;-32
2023/09/08 07:56:19;;;;;;;14.70;5.30;;;;;;;-128.00;-1.00;-1.00;19481;316;7506029;-35
2023/09/08 07:58:45;;;;;;;6.20;5.30;;;;;;;-128.00;-1.00;-1.00;19473;321;7505005;-32
2023/09/08 08:01:13;;;;;;;7.30;5.10;;;;;;;-128.00;-1.00;-1.00;19487;316;7504987;-35
2023/09/08 08:03:41;;;;;;;4.10;3.60;;;;;;;-128.00;-1.00;-1.00;20198;316;7504725;-35
2023/09/08 08:06:07;;;;;;;6.70;5.40;;;;;;;-128.00;-1.00;-1.00;19495;316;7505754;-31
2023/09/08 08:08:38;;;;;;;6.90;4.50;;;;;;;-128.00;-1.00;-1.00;19070;316;7506623;-32
2023/09/08 08:11:17;;;;;;;6.40;3.40;;;;;;;-128.00;-1.00;-1.00;19053;316;7504938;-36
2023/09/08 08:13:43;;;;;;;7.50;3.70;;;;;;;-128.00;-1.00;-1.00;19078;318;7505140;-32
2023/09/08 08:16:09;;;;;;;6.10;4.60;;;;;;;-128.00;-1.00;-1.00;19080;321;7504850;-32
2023/09/08 08:18:35;;;;;;;7.50;4.60;;;;;;;-128.00;-1.00;-1.00;19490;321;7504724;-32
2023/09/08 08:21:03;;;;;;;10.90;4.50;;;;;;;-128.00;-1.00;-1.00;19476;316;7505225;-36
2023/09/08 08:23:30;;;;;;;7.10;4.10;;;;;;;-128.00;-1.00;-1.00;19054;317;7505692;-36
2023/09/08 08:25:56;;;;;;;12.60;6.20;;;;;;;-128.00;-1.00;-1.00;19055;316;7504794;-32
2023/09/08 08:28:22;;;;;;;12.30;4.60;;;;;;;-128.00;-1.00;-1.00;19015;318;7505095;-36
2023/09/08 08:30:48;;;;;;;9.20;5.60;;;;;;;-128.00;-1.00;-1.00;19472;316;7505198;-33
2023/09/08 08:33:14;;;;;;;9.30;5.60;;;;;;;-128.00;-1.00;-1.00;19486;316;7505008;-36
2023/09/08 08:35:40;;;;;;;13.00;6.30;;;;;;;-128.00;-1.00;-1.00;19484;321;7504807;-36
2023/09/08 08:38:06;;;;;;;22.50;12.40;;;;;;;-128.00;-1.00;-1.00;19487;316;7505344;-36
2023/09/08 08:40:34;;;;;;;21.20;5.90;;;;;;;-128.00;-1.00;-1.00;19495;321;7505097;-36
2023/09/08 08:43:00;;;;;;;16.80;11.10;;;;;;;-128.00;-1.00;-1.00;19064;316;7505699;-32
2023/09/08 08:45:26;;;;;;;25.70;14.10;;;;;;;-128.00;-1.00;-1.00;19069;318;7504381;-33
2023/09/08 08:47:52;;;;;;;17.50;4.30;;;;;;;-128.00;-1.00;-1.00;19073;316;7504675;-31
2023/09/08 08:50:18;;;;;;;4.40;3.60;;;;;;;-128.00;-1.00;-1.00;19064;316;7506502;-32
2023/09/08 08:52:44;;;;;;;18.50;15.10;;;;;;;-128.00;-1.00;-1.00;19091;316;7504577;-32
2023/09/08 08:55:10;;;;;;;12.40;11.30;;;;;;;-128.00;-1.00;-1.00;19088;322;7504977;-32
2023/09/08 08:57:39;;;;;;;18.10;16.20;;;;;;;-128.00;-1.00;-1.00;19062;316;7505135;-36
2023/09/08 09:00:09;;;;;;;4.80;4.40;;;;;;;-128.00;-1.00;-1.00;19070;322;7504767;-36
2023/09/08 09:02:36;;;;;;;7.50;4.30;;;;;;;-128.00;-1.00;-1.00;19060;316;7505328;-36
2023/09/08 09:05:02;;;;;;;7.10;5.60;;;;;;;-128.00;-1.00;-1.00;19075;317;7506362;-36
2023/09/08 09:07:28;;;;;;;8.30;5.90;;;;;;;-128.00;-1.00;-1.00;20593;320;7504002;-36
2023/09/08 09:09:54;;;;;;;7.70;6.00;;;;;;;-128.00;-1.00;-1.00;20158;322;7505657;-32
2023/09/08 09:12:21;;;;;;;13.20;5.40;;;;;;;-128.00;-1.00;-1.00;20429;316;7504571;-36
2023/09/08 09:14:52;;;;;;;7.10;5.00;;;;;;;-128.00;-1.00;-1.00;19483;316;7504987;-36
2023/09/08 09:17:18;;;;;;;5.20;4.70;;;;;;;-128.00;-1.00;-1.00;19088;316;7505376;-36
2023/09/08 09:19:44;;;;;;;5.90;4.90;;;;;;;-128.00;-1.00;-1.00;19481;320;7505432;-32
2023/09/08 09:22:10;;;;;;;14.70;4.40;;;;;;;-128.00;-1.00;-1.00;18982;316;7506075;-33
2023/09/08 09:24:46;;;;;;;5.20;3.80;;;;;;;-128.00;-1.00;-1.00;20200;321;7504542;-33
2023/09/08 09:27:13;;;;;;;3.30;2.90;;;;;;;-128.00;-1.00;-1.00;28171;316;7504427;-36
2023/09/08 09:29:51;;;;;;;8.10;3.90;;;;;;;-128.00;-1.00;-1.00;19515;316;7505421;-33
2023/09/08 09:32:17;;;;;;;2.90;2.50;;;;;;;-128.00;-1.00;-1.00;68437;316;7503864;-31
2023/09/08 09:34:50;;;;;;;12.50;3.80;;;;;;;-128.00;-1.00;-1.00;98569;316;3002935;-36
2023/09/08 09:37:16;;;;;;;10.90;3.60;;;;;;;-128.00;-1.00;-1.00;101023;316;1003911;-35
2023/09/08 09:39:42;;;;;;;3.70;3.10;;;;;;;-128.00;-1.00;-1.00;101098;316;1003669;-36
2023/09/08 09:42:07;;;;;;;6.50;3.50;;;;;;;-128.00;-1.00;-1.00;78996;316;7504885;-33
2023/09/08 09:44:33;;;;;;;4.90;3.50;;;;;;;-128.00;-1.00;-1.00;38706;316;7504516;-36
2023/09/08 09:47:00;;;;;;;6.50;3.70;;;;;;;-128.00;-1.00;-1.00;98920;317;3002710;-32
2023/09/08 09:49:31;;;;;;;4.00;3.10;;;;;;;-128.00;-1.00;-1.00;100955;316;1002858;-32
2023/09/08 09:51:57;;;;;;;2.90;2.10;;;;;;;-128.00;-1.00;-1.00;96781;316;3003145;-36
2023/09/08 09:54:25;;;;;;;5.30;3.40;;;;;;;-128.00;-1.00;-1.00;40426;316;7504790;-32
2023/09/08 09:56:51;;;;;;;3.80;2.30;;;;;;;-128.00;-1.00;-1.00;21256;317;7504639;-35
2023/09/08 09:59:17;;;;;;;5.70;3.40;;;;;;;-128.00;-1.00;-1.00;62232;316;7504640;-35
2023/09/08 10:01:43;;;;;;;4.60;2.60;;;;;;;-128.00;-1.00;-1.00;99706;316;2856192;-36
2023/09/08 10:04:09;;;;;;;5.90;3.40;;;;;;;-128.00;-1.00;-1.00;101021;317;1004903;-33
2023/09/08 10:06:36;;;;;;;2.20;2.00;;;;;;;-128.00;-1.00;-1.00;101078;316;1003269;-33
2023/09/08 10:09:04;;;;;;;3.40;2.20;;;;;;;-128.00;-1.00;-1.00;101137;316;1003459;-37
2023/09/08 10:11:42;;;;;;;3.80;2.90;;;;;;;-128.00;-1.00;-1.00;101030;316;1003481;-36
2023/09/08 10:14:11;;;;;;;5.30;2.00;;;;;;;-128.00;-1.00;-1.00;101033;316;1004250;-31
2023/09/08 10:16:36;;;;;;;4.40;3.00;;;;;;;-128.00;-1.00;-1.00;101052;316;1002860;-31
2023/09/08 10:19:03;;;;;;;5.30;3.30;;;;;;;-128.00;-1.00;-1.00;101000;316;1003295;-35
2023/09/08 10:21:29;;;;;;;3.30;2.60;;;;;;;-128.00;-1.00;-1.00;100749;318;1002874;-35
2023/09/08 10:24:01;;;;;;;3.80;2.10;;;;;;;-128.00;-1.00;-1.00;100772;316;1004183;-37
2023/09/08 10:26:28;;;;;;;4.70;2.80;;;;;;;-128.00;-1.00;-1.00;101027;316;1003243;-31
2023/09/08 10:28:55;;;;;;;1.60;1.40;;;;;;;-128.00;-1.00;-1.00;101024;316;1003863;-35
2023/09/08 10:31:24;;;;;;;6.90;3.90;;;;;;;-128.00;-1.00;-1.00;101062;317;1003110;-35
2023/09/08 10:33:49;;;;;;;5.20;3.80;;;;;;;-128.00;-1.00;-1.00;100978;317;1003272;-31
2023/09/08 10:36:15;;;;;;;;;;;;;;;-128.00;-1.00;-1.00;100751;316;1003328;-35
2023/09/08 10:38:41;;;;;;;10.10;3.90;;;;;;;-128.00;-1.00;-1.00;101045;316;1004742;-31
2023/09/08 10:41:26;;;;;;;3.80;1.80;;;;;;;-128.00;-1.00;-1.00;100982;316;1002979;-35
2023/09/08 10:43:56;;;;;;;3.10;2.20;;;;;;;-128.00;-1.00;-1.00;100785;317;1002670;-30
2023/09/08 10:46:23;;;;;;;2.90;2.40;;;;;;;-128.00;-1.00;-1.00;100998;317;1003024;-31
2023/09/08 10:48:49;;;;;;;1.10;1.00;;;;;;;-128.00;-1.00;-1.00;100734;318;1004158;-35
2023/09/08 10:51:17;;;;;;;4.60;3.20;;;;;;;-128.00;-1.00;-1.00;101041;316;1003049;-36
2023/09/08 10:53:42;;;;;;;3.00;2.60;;;;;;;-128.00;-1.00;-1.00;101050;316;1003604;-36
2023/09/08 10:56:08;;;;;;;2.20;1.80;;;;;;;-128.00;-1.00;-1.00;101033;316;1003824;-38
2023/09/08 10:58:42;;;;;;;5.40;3.30;;;;;;;-128.00;-1.00;-1.00;101000;316;1004791;-35
2023/09/08 11:01:12;;;;;;;;;;;;;;;-128.00;-1.00;-1.00;100997;316;1002971;-32
2023/09/08 11:03:44;;;;;;;2.00;1.30;;;;;;;-128.00;-1.00;-1.00;101005;316;1002990;-35
2023/09/08 11:06:10;;;;;;;2.40;2.20;;;;;;;-128.00;-1.00;-1.00;101025;316;1003788;-31
2023/09/08 11:08:43;;;;;;;3.10;2.40;;;;;;;-128.00;-1.00;-1.00;101030;316;1004061;-35
2023/09/08 11:11:12;;;;;;;8.10;3.30;;;;;;;-128.00;-1.00;-1.00;101019;316;1002926;-35
2023/09/08 11:13:39;;;;;;;3.50;2.30;;;;;;;-128.00;-1.00;-1.00;101077;316;1003156;-35
2023/09/08 11:16:06;;;;;;;12.70;2.80;;;;;;;-128.00;-1.00;-1.00;101058;316;1003326;-32
2023/09/08 11:18:36;;;;;;;3.90;2.80;;;;;;;-128.00;-1.00;-1.00;101027;316;1002975;-31
2023/09/08 11:21:02;;;;;;;9.70;2.10;;;;;;;-128.00;-1.00;-1.00;101058;316;1002829;-31
2023/09/08 11:23:28;;;;;;;6.60;2.50;;;;;;;-128.00;-1.00;-1.00;101049;316;1002844;-35
2023/09/08 11:25:54;;;;;;;3.00;2.40;;;;;;;-128.00;-1.00;-1.00;101015;317;1003443;-42
2023/09/08 11:28:23;;;;;;;3.90;2.70;;;;;;;-128.00;-1.00;-1.00;101046;316;1003285;-31
2023/09/08 11:30:49;;;;;;;2.20;2.00;;;;;;;-128.00;-1.00;-1.00;101006;316;1003196;-32
2023/09/08 11:33:15;;;;;;;5.00;2.80;;;;;;;-128.00;-1.00;-1.00;101071;316;1003551;-35
2023/09/08 11:35:44;;;;;;;3.40;3.00;;;;;;;-128.00;-1.00;-1.00;101027;316;1003387;-35
2023/09/08 11:38:10;;;;;;;4.00;2.80;;;;;;;-128.00;-1.00;-1.00;101039;316;1002927;-31
2023/09/08 11:40:36;;;;;;;8.50;2.40;;;;;;;-128.00;-1.00;-1.00;100998;316;1003964;-31
2023/09/08 11:43:03;;;;;;;4.10;2.60;;;;;;;-128.00;-1.00;-1.00;101027;316;1002822;-35
2023/09/08 11:45:29;;;;;;;3.30;2.30;;;;;;;-128.00;-1.00;-1.00;101021;316;1004056;-31
2023/09/08 11:47:54;;;;;;;3.60;2.30;;;;;;;-128.00;-1.00;-1.00;101061;316;1003422;-35
2023/09/08 11:50:20;;;;;;;2.70;2.40;;;;;;;-128.00;-1.00;-1.00;101048;316;1003737;-35
2023/09/08 11:52:47;;;;;;;2.50;2.20;;;;;;;-128.00;-1.00;-1.00;101014;316;1004892;-35
2023/09/08 11:55:13;;;;;;;1.80;1.70;;;;;;;-128.00;-1.00;-1.00;101030;316;1004647;-35
2023/09/08 11:57:39;;;;;;;4.20;3.00;;;;;;;-128.00;-1.00;-1.00;101062;316;1003215;-31
2023/09/08 12:00:07;;;;;;;3.00;2.10;;;;;;;-128.00;-1.00;-1.00;100995;316;1004313;-32
2023/09/08 12:02:36;;;;;;;2.70;2.50;;;;;;;-128.00;-1.00;-1.00;100977;317;1002907;-35
2023/09/08 12:05:03;;;;;;;2.80;2.40;;;;;;;-128.00;-1.00;-1.00;101049;316;1002827;-35